Time;durP1;ratioP1;P1;durP2;ratioP2;P2;SDS_P1;SDS_P2;PMS_P1;PMS_P2;Temp;Humidity;BMP_temperature;BMP_pressure;BME280_temperature;BME280_humidity;BME280_pressure;Samples;Min_cycle;Max_cycle;Signal;HPM_P1;HPM_P2
2022/04/04 00:01:43;;;;;;;26.10;24.50;;;;;;;;;;5093431;28;20215;-85
2022/04/04 00:04:12;;;;;;;26.00;24.35;;;;;;;;;;5093424;28;20274;-83
2022/04/04 00:06:40;;;;;;;26.73;24.92;;;;;;;;;;5093567;28;20210;-85
2022/04/04 00:09:07;;;;;;;26.35;24.65;;;;;;;;;;5075932;28;20191;-85
2022/04/04 00:11:34;;;;;;;26.85;25.05;;;;;;;;;;5093581;28;20195;-85
2022/04/04 00:14:03;;;;;;;27.13;25.33;;;;;;;;;;5093748;28;20198;-85
2022/04/04 00:16:32;;;;;;;26.20;24.52;;;;;;;;;;5093742;28;20210;-85
2022/04/04 00:19:00;;;;;;;26.92;25.17;;;;;;;;;;5093585;28;20649;-85
2022/04/04 00:21:29;;;;;;;25.55;23.85;;;;;;;;;;5093908;28;20222;-85
2022/04/04 00:23:57;;;;;;;25.60;24.10;;;;;;;;;;5093195;28;20196;-84
2022/04/04 00:26:24;;;;;;;25.55;23.85;;;;;;;;;;5093495;28;20191;-86
2022/04/04 00:28:51;;;;;;;26.20;24.30;;;;;;;;;;5093670;28;20285;-85
2022/04/04 00:31:19;;;;;;;26.73;25.00;;;;;;;;;;5093637;28;20191;-86
2022/04/04 00:33:46;;;;;;;25.10;23.50;;;;;;;;;;5093172;28;20226;-85
2022/04/04 00:36:14;;;;;;;26.02;24.23;;;;;;;;;;5093363;28;20188;-85
2022/04/04 00:38:43;;;;;;;27.08;25.17;;;;;;;;;;5093266;28;20210;-85
2022/04/04 00:41:10;;;;;;;25.67;23.98;;;;;;;;;;5093358;28;20552;-85
2022/04/04 00:43:38;;;;;;;25.98;24.27;;;;;;;;;;5093369;28;20584;-85
2022/04/04 00:46:05;;;;;;;26.27;24.60;;;;;;;;;;5093363;28;20187;-84
2022/04/04 00:48:33;;;;;;;26.25;24.63;;;;;;;;;;5093166;28;20191;-85
2022/04/04 00:51:01;;;;;;;26.83;25.02;;;;;;;;;;5093394;28;20187;-85
2022/04/04 00:53:28;;;;;;;26.23;24.48;;;;;;;;;;5093629;28;20199;-85
2022/04/04 00:55:57;;;;;;;26.33;24.55;;;;;;;;;;5096918;28;20199;-83
2022/04/04 00:58:25;;;;;;;26.88;25.17;;;;;;;;;;5097041;28;20192;-85
2022/04/04 01:00:52;;;;;;;25.70;24.08;;;;;;;;;;5097441;28;20277;-84
2022/04/04 01:03:19;;;;;;;26.48;24.77;;;;;;;;;;5096723;28;20239;-88
2022/04/04 01:05:47;;;;;;;26.15;24.35;;;;;;;;;;5097243;28;20653;-85
2022/04/04 01:08:14;;;;;;;27.38;25.35;;;;;;;;;;5097135;28;20526;-85
2022/04/04 01:10:42;;;;;;;25.65;24.05;;;;;;;;;;5097070;28;20194;-84
2022/04/04 01:13:12;;;;;;;27.80;25.90;;;;;;;;;;5096786;28;20698;-85
2022/04/04 01:15:39;;;;;;;27.98;25.52;;;;;;;;;;5096892;28;20294;-85
2022/04/04 01:18:07;;;;;;;28.38;26.48;;;;;;;;;;5096897;28;20411;-84
2022/04/04 01:20:34;;;;;;;28.02;26.17;;;;;;;;;;5096958;28;20549;-85
2022/04/04 01:23:02;;;;;;;28.25;26.23;;;;;;;;;;5096414;28;20218;-84
2022/04/04 01:25:31;;;;;;;28.90;26.67;;;;;;;;;;5096714;28;20191;-85
2022/04/04 01:27:59;;;;;;;29.30;27.30;;;;;;;;;;5096779;28;20192;-85
2022/04/04 01:30:27;;;;;;;30.42;28.08;;;;;;;;;;5096486;28;20274;-85
2022/04/04 01:32:54;;;;;;;31.38;28.95;;;;;;;;;;5096561;28;20194;-85
2022/04/04 01:35:22;;;;;;;31.00;28.70;;;;;;;;;;5096518;28;20195;-84
2022/04/04 01:37:50;;;;;;;32.63;30.00;;;;;;;;;;5096159;28;20190;-84
2022/04/04 01:40:17;;;;;;;30.90;28.60;;;;;;;;;;5096316;28;20210;-85
2022/04/04 01:42:49;;;;;;;32.53;29.63;;;;;;;;;;5096378;28;20227;-85
2022/04/04 01:45:17;;;;;;;33.05;30.55;;;;;;;;;;5096308;28;20204;-85
2022/04/04 01:47:45;;;;;;;31.10;28.77;;;;;;;;;;5096313;28;20199;-85
2022/04/04 01:50:13;;;;;;;30.30;28.13;;;;;;;;;;5096141;28;20199;-85
2022/04/04 01:52:40;;;;;;;31.17;28.73;;;;;;;;;;5096121;28;20223;-85
2022/04/04 01:55:08;;;;;;;32.30;29.80;;;;;;;;;;5095924;28;20283;-85
2022/04/04 01:57:35;;;;;;;32.60;30.30;;;;;;;;;;5095767;28;20660;-85
2022/04/04 02:00:05;;;;;;;31.83;29.25;;;;;;;;;;5096579;28;20637;-85
2022/04/04 02:02:32;;;;;;;32.65;30.25;;;;;;;;;;5095533;28;20227;-84
2022/04/04 02:05:00;;;;;;;31.05;28.85;;;;;;;;;;5094852;28;20192;-84
2022/04/04 02:07:27;;;;;;;32.53;30.17;;;;;;;;;;5095966;28;20704;-84
2022/04/04 02:09:58;;;;;;;30.83;28.63;;;;;;;;;;5095899;28;20644;-85
2022/04/04 02:12:25;;;;;;;30.80;28.33;;;;;;;;;;5095859;28;20305;-85
2022/04/04 02:14:53;;;;;;;29.00;26.80;;;;;;;;;;5095715;28;20192;-84
2022/04/04 02:17:22;;;;;;;30.55;28.20;;;;;;;;;;5095531;28;20184;-84
2022/04/04 02:19:49;;;;;;;29.35;27.15;;;;;;;;;;5095814;28;20190;-85
2022/04/04 02:22:17;;;;;;;30.13;28.02;;;;;;;;;;5095656;28;20565;-84
2022/04/04 02:24:44;;;;;;;30.40;28.08;;;;;;;;;;5095508;28;20284;-85
2022/04/04 02:27:11;;;;;;;30.35;28.23;;;;;;;;;;5095297;28;20195;-85
2022/04/04 02:29:39;;;;;;;28.92;26.55;;;;;;;;;;5095489;28;20199;-85
2022/04/04 02:32:06;;;;;;;27.15;25.15;;;;;;;;;;5095452;28;20199;-85
2022/04/04 02:34:35;;;;;;;29.20;27.20;;;;;;;;;;5095063;28;20297;-85
2022/04/04 02:37:03;;;;;;;30.80;28.60;;;;;;;;;;5095454;28;20198;-85
2022/04/04 02:39:30;;;;;;;29.15;27.13;;;;;;;;;;5095170;28;20545;-84
2022/04/04 02:41:57;;;;;;;30.27;27.98;;;;;;;;;;5095351;28;20191;-85
2022/04/04 02:44:25;;;;;;;31.77;29.23;;;;;;;;;;5095275;28;20527;-84
2022/04/04 02:46:52;;;;;;;29.73;27.33;;;;;;;;;;5095351;28;20198;-85
2022/04/04 02:49:20;;;;;;;30.15;27.95;;;;;;;;;;5095136;28;20190;-85
2022/04/04 02:51:49;;;;;;;28.17;26.17;;;;;;;;;;5095333;28;20369;-84
2022/04/04 02:54:16;;;;;;;30.02;27.95;;;;;;;;;;5077060;28;20288;-85
2022/04/04 02:56:42;;;;;;;27.42;25.38;;;;;;;;;;5094743;28;20196;-85
2022/04/04 02:59:10;;;;;;;29.45;27.35;;;;;;;;;;5095124;28;20187;-85
2022/04/04 03:01:37;;;;;;;28.50;26.40;;;;;;;;;;5094611;28;20537;-85
2022/04/04 03:04:05;;;;;;;29.35;27.13;;;;;;;;;;5094224;28;20242;-85
2022/04/04 03:06:32;;;;;;;31.92;29.73;;;;;;;;;;5094584;28;20194;-84
2022/04/04 03:09:01;;;;;;;29.55;27.45;;;;;;;;;;5094517;28;20221;-85
2022/04/04 03:11:28;;;;;;;29.85;27.55;;;;;;;;;;5094674;28;20183;-85
2022/04/04 03:13:56;;;;;;;27.20;25.10;;;;;;;;;;5094767;28;20558;-85
2022/04/04 03:16:23;;;;;;;31.05;28.85;;;;;;;;;;5094507;28;20527;-85
2022/04/04 03:18:50;;;;;;;30.40;28.05;;;;;;;;;;5094639;28;20194;-85
2022/04/04 03:21:18;;;;;;;30.80;28.45;;;;;;;;;;5094664;28;20245;-85
2022/04/04 03:23:45;;;;;;;22.98;21.55;;;;;;;;;;5094330;28;20219;-85
2022/04/04 03:26:14;;;;;;;31.27;28.92;;;;;;;;;;5094294;28;20197;-85
2022/04/04 03:28:42;;;;;;;30.20;27.83;;;;;;;;;;5094559;28;20183;-85
2022/04/04 03:31:10;;;;;;;27.05;25.02;;;;;;;;;;5094281;28;20195;-84
2022/04/04 03:33:37;;;;;;;31.00;28.90;;;;;;;;;;5094422;28;20219;-85
2022/04/04 03:36:05;;;;;;;23.90;22.42;;;;;;;;;;5093916;28;20187;-85
2022/04/04 03:38:33;;;;;;;30.77;28.38;;;;;;;;;;5094142;28;20192;-84
2022/04/04 03:41:00;;;;;;;30.27;28.08;;;;;;;;;;5094284;28;20187;-83
2022/04/04 03:43:29;;;;;;;31.15;28.88;;;;;;;;;;5093979;28;20223;-84
2022/04/04 03:45:56;;;;;;;26.05;24.30;;;;;;;;;;5093963;28;20184;-85
2022/04/04 03:48:23;;;;;;;28.23;26.02;;;;;;;;;;5093725;28;20199;-85
2022/04/04 03:50:54;;;;;;;32.33;29.70;;;;;;;;;;5093825;28;20230;-84
2022/04/04 03:53:22;;;;;;;28.20;26.08;;;;;;;;;;5093886;28;20249;-84
2022/04/04 03:55:50;;;;;;;30.65;28.27;;;;;;;;;;5094114;28;20242;-85
2022/04/04 03:58:18;;;;;;;29.67;27.30;;;;;;;;;;5093761;28;20287;-85
2022/04/04 04:00:46;;;;;;;27.60;25.55;;;;;;;;;;5093973;28;20194;-85
2022/04/04 04:03:14;;;;;;;29.85;27.55;;;;;;;;;;5093417;28;20250;-85
2022/04/04 04:05:41;;;;;;;33.28;30.15;;;;;;;;;;5093625;28;20191;-85
2022/04/04 04:08:09;;;;;;;30.13;27.75;;;;;;;;;;5093857;28;20203;-85
2022/04/04 04:10:36;;;;;;;27.65;25.55;;;;;;;;;;5093697;28;20610;-85
2022/04/04 04:13:05;;;;;;;28.48;26.38;;;;;;;;;;5093878;28;20194;-85
2022/04/04 04:15:32;;;;;;;30.55;28.33;;;;;;;;;;5093594;28;20188;-85
2022/04/04 04:18:01;;;;;;;25.73;23.90;;;;;;;;;;5093934;28;20191;-85
2022/04/04 04:20:32;;;;;;;27.88;25.88;;;;;;;;;;5093577;28;20188;-85
2022/04/04 04:23:01;;;;;;;29.50;27.23;;;;;;;;;;5093142;28;20211;-86
2022/04/04 04:25:30;;;;;;;31.13;28.25;;;;;;;;;;5075434;28;20199;-85
2022/04/04 04:27:59;;;;;;;31.20;28.80;;;;;;;;;;5092779;28;20279;-85
2022/04/04 04:30:27;;;;;;;26.55;24.60;;;;;;;;;;5093676;28;20526;-84
2022/04/04 04:32:55;;;;;;;26.55;24.58;;;;;;;;;;5093340;28;20191;-85
2022/04/04 04:35:24;;;;;;;27.20;25.27;;;;;;;;;;5093372;28;20195;-85
2022/04/04 04:37:51;;;;;;;28.50;26.30;;;;;;;;;;5093405;28;20192;-85
2022/04/04 04:40:19;;;;;;;29.70;27.35;;;;;;;;;;5075081;28;20214;-85
2022/04/04 04:42:47;;;;;;;27.90;25.80;;;;;;;;;;5093197;28;20195;-85
2022/04/04 04:45:14;;;;;;;30.70;28.30;;;;;;;;;;5092989;28;20220;-85
2022/04/04 04:47:42;;;;;;;31.27;28.65;;;;;;;;;;5093373;28;20207;-84
2022/04/04 04:50:10;;;;;;;30.90;28.38;;;;;;;;;;5092975;28;20203;-85
2022/04/04 04:52:39;;;;;;;26.80;24.73;;;;;;;;;;5093403;28;20219;-84
2022/04/04 04:55:07;;;;;;;28.35;26.00;;;;;;;;;;5093257;28;20191;-85
2022/04/04 04:57:34;;;;;;;26.83;24.83;;;;;;;;;;5092902;28;20210;-85
2022/04/04 05:00:04;;;;;;;28.55;26.35;;;;;;;;;;5092869;28;20195;-84
2022/04/04 05:02:31;;;;;;;33.28;30.40;;;;;;;;;;5092863;28;20192;-85
2022/04/04 05:04:59;;;;;;;23.02;21.60;;;;;;;;;;5092700;28;20242;-85
2022/04/04 05:07:27;;;;;;;26.55;24.60;;;;;;;;;;5092958;28;20196;-84
2022/04/04 05:09:56;;;;;;;26.40;24.60;;;;;;;;;;5093071;28;20534;-85
2022/04/04 05:12:23;;;;;;;28.15;25.75;;;;;;;;;;5092868;28;20195;-85
2022/04/04 05:14:50;;;;;;;28.48;26.23;;;;;;;;;;5092717;28;20198;-85
2022/04/04 05:17:18;;;;;;;31.35;28.80;;;;;;;;;;5093155;28;20196;-85
2022/04/04 05:19:46;;;;;;;28.83;26.48;;;;;;;;;;5092688;28;20253;-84
2022/04/04 05:22:14;;;;;;;26.85;24.63;;;;;;;;;;5093066;28;20188;-88
2022/04/04 05:24:41;;;;;;;28.67;26.35;;;;;;;;;;5093495;28;20217;-88
2022/04/04 05:27:10;;;;;;;30.00;27.80;;;;;;;;;;5093590;28;20192;-88
2022/04/04 05:29:38;;;;;;;26.80;24.90;;;;;;;;;;5092891;28;20245;-85
2022/04/04 05:32:06;;;;;;;29.83;27.33;;;;;;;;;;5092620;28;20187;-85
2022/04/04 05:34:33;;;;;;;29.20;27.00;;;;;;;;;;5093071;28;20596;-88
2022/04/04 05:37:01;;;;;;;29.00;26.90;;;;;;;;;;5093130;28;20194;-87
2022/04/04 05:39:28;;;;;;;26.95;24.55;;;;;;;;;;5093462;28;20194;-88
2022/04/04 05:41:55;;;;;;;28.08;25.77;;;;;;;;;;5096104;28;20191;-85
2022/04/04 05:44:25;;;;;;;29.55;27.15;;;;;;;;;;5096409;28;20216;-85
2022/04/04 05:46:52;;;;;;;28.40;26.45;;;;;;;;;;5095846;28;20226;-86
2022/04/04 05:49:20;;;;;;;26.13;24.33;;;;;;;;;;5096813;28;20203;-88
2022/04/04 05:51:48;;;;;;;24.38;22.77;;;;;;;;;;5096990;28;20195;-88
2022/04/04 05:54:15;;;;;;;28.05;25.80;;;;;;;;;;5097033;28;20207;-88
2022/04/04 05:56:44;;;;;;;28.17;26.13;;;;;;;;;;5096645;28;20206;-88
2022/04/04 05:59:12;;;;;;;29.95;26.92;;;;;;;;;;5096657;28;20196;-88
2022/04/04 06:01:41;;;;;;;25.90;24.02;;;;;;;;;;5096289;28;20190;-88
2022/04/04 06:04:08;;;;;;;27.08;25.17;;;;;;;;;;5096061;28;20231;-89
2022/04/04 06:06:36;;;;;;;27.23;24.75;;;;;;;;;;5096659;28;20759;-89
2022/04/04 06:09:03;;;;;;;26.95;24.92;;;;;;;;;;5096686;28;20183;-89
2022/04/04 06:11:30;;;;;;;27.60;25.55;;;;;;;;;;5096669;28;20191;-88
2022/04/04 06:13:58;;;;;;;27.13;25.23;;;;;;;;;;5078218;28;20286;-88
2022/04/04 06:16:26;;;;;;;25.20;23.55;;;;;;;;;;5096320;28;20198;-91
2022/04/04 06:18:56;;;;;;;26.20;24.40;;;;;;;;;;5096117;28;20188;-88
2022/04/04 06:21:23;;;;;;;26.50;24.65;;;;;;;;;;5096423;28;20187;-88
2022/04/04 06:23:51;;;;;;;28.73;26.45;;;;;;;;;;5096011;28;20231;-87
2022/04/04 06:26:18;;;;;;;25.02;22.73;;;;;;;;;;5096399;28;20195;-88
2022/04/04 06:28:45;;;;;;;25.33;23.52;;;;;;;;;;5096116;28;20189;-88
2022/04/04 06:31:13;;;;;;;27.98;26.00;;;;;;;;;;5096152;28;20211;-88
2022/04/04 06:33:40;;;;;;;26.92;25.02;;;;;;;;;;5095787;28;20245;-88
2022/04/04 06:36:09;;;;;;;26.25;24.38;;;;;;;;;;5096134;28;20264;-88
2022/04/04 06:38:37;;;;;;;26.77;24.65;;;;;;;;;;5095821;28;20195;-88
2022/04/04 06:41:04;;;;;;;24.85;23.35;;;;;;;;;;5095525;28;20191;-88
2022/04/04 06:43:32;;;;;;;24.70;23.20;;;;;;;;;;5078229;28;20211;-88
2022/04/04 06:46:02;;;;;;;28.55;26.05;;;;;;;;;;5096227;28;20211;-88
2022/04/04 06:48:30;;;;;;;24.80;23.20;;;;;;;;;;5095695;28;20214;-88
2022/04/04 06:50:59;;;;;;;26.33;24.42;;;;;;;;;;5095374;28;20282;-88
2022/04/04 06:53:27;;;;;;;25.48;23.77;;;;;;;;;;5095700;28;20588;-89
2022/04/04 06:55:55;;;;;;;26.13;24.42;;;;;;;;;;5095449;28;20209;-87
2022/04/04 06:58:22;;;;;;;28.70;26.10;;;;;;;;;;5095160;28;20194;-87
2022/04/04 07:00:49;;;;;;;25.77;23.88;;;;;;;;;;5094878;28;20261;-87
2022/04/04 07:03:18;;;;;;;27.05;25.05;;;;;;;;;;5095253;28;20601;-87
2022/04/04 07:05:45;;;;;;;25.88;23.95;;;;;;;;;;5095405;28;20664;-89
2022/04/04 07:08:13;;;;;;;25.15;23.65;;;;;;;;;;5095725;28;20206;-89
2022/04/04 07:10:44;;;;;;;24.88;23.38;;;;;;;;;;5095530;28;20206;-88
2022/04/04 07:13:12;;;;;;;28.13;25.80;;;;;;;;;;5095447;28;20199;-88
2022/04/04 07:15:41;;;;;;;27.83;25.73;;;;;;;;;;5060914;28;20664;-89
2022/04/04 07:18:09;;;;;;;26.27;24.45;;;;;;;;;;5095386;28;20183;-89
2022/04/04 07:20:38;;;;;;;26.38;24.67;;;;;;;;;;5095221;28;20641;-88
2022/04/04 07:23:06;;;;;;;29.30;27.27;;;;;;;;;;5095355;28;20286;-88
2022/04/04 07:25:34;;;;;;;27.13;25.42;;;;;;;;;;5094585;28;20227;-88
2022/04/04 07:28:03;;;;;;;27.25;25.17;;;;;;;;;;5094968;28;20190;-88
2022/04/04 07:30:30;;;;;;;28.95;26.75;;;;;;;;;;5094874;28;20207;-88
2022/04/04 07:33:01;;;;;;;27.98;26.13;;;;;;;;;;5094661;28;20226;-87
2022/04/04 07:35:29;;;;;;;24.65;22.70;;;;;;;;;;5094867;28;20249;-87
2022/04/04 07:37:56;;;;;;;28.50;26.50;;;;;;;;;;5094844;28;20192;-87
2022/04/04 07:40:23;;;;;;;26.42;24.55;;;;;;;;;;5094818;28;20495;-94
2022/04/04 07:42:51;;;;;;;27.45;25.52;;;;;;;;;;5095094;28;20576;-95
2022/04/04 07:45:20;;;;;;;26.27;24.25;;;;;;;;;;5077042;28;20258;-94
2022/04/04 07:47:49;;;;;;;26.08;24.20;;;;;;;;;;5077084;28;20271;-88
2022/04/04 07:50:16;;;;;;;27.90;25.90;;;;;;;;;;5094405;28;20207;-89
2022/04/04 07:52:44;;;;;;;26.35;24.35;;;;;;;;;;5094830;28;20187;-91
2022/04/04 07:55:11;;;;;;;27.25;25.42;;;;;;;;;;5095891;28;20207;-90
2022/04/04 07:57:39;;;;;;;28.83;26.63;;;;;;;;;;5095354;28;20183;-91
2022/04/04 08:00:07;;;;;;;27.92;25.88;;;;;;;;;;5095265;28;20595;-92
2022/04/04 08:02:36;;;;;;;27.10;25.23;;;;;;;;;;5094009;28;20187;-92
2022/04/04 08:05:06;;;;;;;27.58;25.67;;;;;;;;;;5094288;28;20215;-95
2022/04/04 08:07:33;;;;;;;28.10;26.27;;;;;;;;;;5094789;28;20275;-91
2022/04/04 08:10:01;;;;;;;26.83;25.13;;;;;;;;;;5094227;28;20187;-93
2022/04/04 08:12:28;;;;;;;31.55;28.95;;;;;;;;;;5092733;28;20671;-86
2022/04/04 08:14:56;;;;;;;25.00;23.50;;;;;;;;;;5094195;28;20190;-89
2022/04/04 08:17:23;;;;;;;28.20;26.10;;;;;;;;;;5094577;28;20639;-90
2022/04/04 08:19:52;;;;;;;25.80;24.15;;;;;;;;;;5094423;28;20196;-86
2022/04/04 08:22:22;;;;;;;25.88;23.98;;;;;;;;;;5094665;28;20192;-94
2022/04/04 08:24:50;;;;;;;29.83;27.73;;;;;;;;;;5094014;28;20265;-87
2022/04/04 08:27:18;;;;;;;28.67;26.48;;;;;;;;;;5094730;28;20206;-92
2022/04/04 08:29:45;;;;;;;26.40;24.65;;;;;;;;;;5094575;28;20210;-92
2022/04/04 08:32:13;;;;;;;27.85;25.52;;;;;;;;;;5094235;28;20530;-91
2022/04/04 08:34:41;;;;;;;26.27;24.60;;;;;;;;;;5094186;28;20294;-91
2022/04/04 08:37:09;;;;;;;27.33;25.30;;;;;;;;;;5094186;28;20273;-90
2022/04/04 08:39:37;;;;;;;25.02;23.48;;;;;;;;;;5093034;28;20183;-87
2022/04/04 08:42:05;;;;;;;27.63;25.73;;;;;;;;;;5094631;28;20188;-88
2022/04/04 08:44:33;;;;;;;27.17;25.38;;;;;;;;;;5093829;28;20237;-89
2022/04/04 08:47:01;;;;;;;27.23;25.40;;;;;;;;;;5093985;28;20213;-90
2022/04/04 08:49:29;;;;;;;28.38;26.55;;;;;;;;;;5094353;28;20187;-89
2022/04/04 08:51:56;;;;;;;27.73;25.73;;;;;;;;;;5094065;28;20234;-89
2022/04/04 08:54:25;;;;;;;27.05;25.25;;;;;;;;;;5093881;28;20661;-90
2022/04/04 08:56:52;;;;;;;26.70;24.80;;;;;;;;;;5094005;28;20199;-89
2022/04/04 08:59:20;;;;;;;24.45;22.75;;;;;;;;;;5094141;28;20195;-89
2022/04/04 09:01:47;;;;;;;24.58;22.98;;;;;;;;;;5094335;28;20191;-89
2022/04/04 09:04:16;;;;;;;25.33;23.63;;;;;;;;;;5093877;28;20239;-90
2022/04/04 09:06:50;;;;;;;27.10;25.15;;;;;;;;;;5094625;28;20614;-89
2022/04/04 09:09:19;;;;;;;28.65;26.60;;;;;;;;;;5075706;28;20206;-89
2022/04/04 09:11:54;;;;;;;25.85;24.08;;;;;;;;;;5093922;28;20286;-86
2022/04/04 09:14:25;;;;;;;24.70;23.10;;;;;;;;;;5093943;28;20194;-85
2022/04/04 09:16:56;;;;;;;26.58;24.50;;;;;;;;;;5097435;28;20659;-85
2022/04/04 09:19:30;;;;;;;32.63;30.20;;;;;;;;;;5079393;28;20290;-88
2022/04/04 09:21:58;;;;;;;24.98;23.33;;;;;;;;;;5097612;28;20237;-88
2022/04/04 09:24:40;;;;;;;24.25;22.45;;;;;;;;;;5097551;28;20217;-87
2022/04/04 09:27:12;;;;;;;24.42;22.88;;;;;;;;;;5097137;28;20232;-87
2022/04/04 09:29:42;;;;;;;24.85;23.25;;;;;;;;;;5097459;28;20187;-88
2022/04/04 09:32:12;;;;;;;27.90;25.75;;;;;;;;;;5097318;28;20192;-88
2022/04/04 09:34:52;;;;;;;26.88;24.80;;;;;;;;;;5097008;28;20254;-87
2022/04/04 09:37:20;;;;;;;28.98;26.92;;;;;;;;;;5097126;28;20231;-91
2022/04/04 09:39:48;;;;;;;26.42;24.73;;;;;;;;;;5097396;28;20184;-94
2022/04/04 09:42:17;;;;;;;27.58;25.48;;;;;;;;;;5097045;28;20654;-86
2022/04/04 09:44:57;;;;;;;27.48;25.38;;;;;;;;;;5097228;28;20218;-89
2022/04/04 09:47:24;;;;;;;27.35;25.20;;;;;;;;;;5096995;28;20214;-87
2022/04/04 09:49:52;;;;;;;28.83;26.73;;;;;;;;;;5097016;28;20187;-95
2022/04/04 09:52:19;;;;;;;30.00;27.60;;;;;;;;;;5097725;28;20222;-89
2022/04/04 09:54:46;;;;;;;26.70;24.90;;;;;;;;;;5097282;28;20199;-94
2022/04/04 09:57:15;;;;;;;26.67;24.92;;;;;;;;;;5098296;28;20222;-88
2022/04/04 09:59:44;;;;;;;27.02;25.08;;;;;;;;;;5097244;28;20675;-93
2022/04/04 10:02:13;;;;;;;25.75;23.95;;;;;;;;;;5096538;28;20191;-87
2022/04/04 10:04:44;;;;;;;27.27;25.52;;;;;;;;;;5096373;28;20277;-91
2022/04/04 10:07:12;;;;;;;26.90;24.80;;;;;;;;;;5096685;28;20641;-90
2022/04/04 10:09:40;;;;;;;27.65;25.60;;;;;;;;;;5096368;28;20199;-90
2022/04/04 10:12:08;;;;;;;26.05;24.35;;;;;;;;;;5096739;28;20192;-91
2022/04/04 10:14:37;;;;;;;26.77;24.90;;;;;;;;;;5096638;28;20218;-90
2022/04/04 10:17:07;;;;;;;24.33;22.52;;;;;;;;;;5096712;28;20187;-91
2022/04/04 10:19:35;;;;;;;27.20;25.40;;;;;;;;;;5096438;28;20203;-92
2022/04/04 10:22:03;;;;;;;26.15;24.33;;;;;;;;;;5096626;28;20199;-90
2022/04/04 10:24:30;;;;;;;26.50;24.73;;;;;;;;;;5096629;28;20188;-91
2022/04/04 10:26:58;;;;;;;26.70;24.92;;;;;;;;;;5095390;28;20187;-91
2022/04/04 10:29:38;;;;;;;24.60;23.00;;;;;;;;;;5096854;28;20188;-91
2022/04/04 10:32:13;;;;;;;25.73;24.02;;;;;;;;;;5097115;28;20683;-90
2022/04/04 10:34:43;;;;;;;27.23;25.52;;;;;;;;;;5095962;28;20198;-90
2022/04/04 10:37:11;;;;;;;28.13;26.10;;;;;;;;;;5078448;28;20641;-90
2022/04/04 10:39:44;;;;;;;23.75;22.33;;;;;;;;;;5096519;28;20188;-91
2022/04/04 10:42:31;;;;;;;26.75;24.88;;;;;;;;;;5095927;28;20202;-90
2022/04/04 10:45:00;;;;;;;23.88;22.23;;;;;;;;;;5095809;28;20727;-91
2022/04/04 10:47:30;;;;;;;26.70;24.85;;;;;;;;;;5096022;28;20215;-91
2022/04/04 10:49:58;;;;;;;24.50;22.80;;;;;;;;;;5095747;28;20192;-92
2022/04/04 10:52:46;;;;;;;25.33;23.52;;;;;;;;;;5096079;28;20187;-91
2022/04/04 10:55:40;;;;;;;27.13;24.88;;;;;;;;;;5088046;28;20252;-91
2022/04/04 10:58:12;;;;;;;26.20;24.40;;;;;;;;;;5013464;28;20213;-92
2022/04/04 11:00:54;;;;;;;26.10;24.35;;;;;;;;;;5013945;28;20210;-91
2022/04/04 11:03:29;;;;;;;25.63;23.85;;;;;;;;;;5013701;28;20234;-92
2022/04/04 11:09:04;;;;;;;26.45;24.15;;;;;;;;;;5013891;28;20213;-91
2022/04/04 11:11:48;;;;;;;24.67;22.98;;;;;;;;;;5013872;28;20225;-91
2022/04/04 11:14:16;;;;;;;26.77;24.90;;;;;;;;;;5013569;28;20276;-91
2022/04/04 11:17:02;;;;;;;23.58;21.90;;;;;;;;;;5013467;28;20201;-91
2022/04/04 11:19:44;;;;;;;24.55;22.85;;;;;;;;;;5013483;28;20230;-91
2022/04/04 11:22:12;;;;;;;26.08;24.08;;;;;;;;;;5013736;28;20311;-90
2022/04/04 11:24:39;;;;;;;22.02;20.50;;;;;;;;;;4997029;28;20249;-90
2022/04/04 11:27:07;;;;;;;24.30;22.67;;;;;;;;;;5013604;28;20210;-91
2022/04/04 11:29:36;;;;;;;25.33;23.60;;;;;;;;;;5013647;28;20244;-91
2022/04/04 11:32:04;;;;;;;24.02;22.50;;;;;;;;;;5013477;28;20241;-91
2022/04/04 11:34:33;;;;;;;26.27;24.45;;;;;;;;;;5057876;28;20206;-91
2022/04/04 11:37:01;;;;;;;30.58;27.70;;;;;;;;;;5095166;28;20205;-89
2022/04/04 11:39:29;;;;;;;28.83;26.45;;;;;;;;;;5095083;28;20198;-90
2022/04/04 11:41:59;;;;;;;30.42;28.33;;;;;;;;;;5094709;28;20187;-89
2022/04/04 11:44:26;;;;;;;31.35;28.60;;;;;;;;;;5094830;28;20223;-92
2022/04/04 11:47:07;;;;;;;27.17;25.40;;;;;;;;;;5095018;28;20276;-91
2022/04/04 11:49:37;;;;;;;26.77;24.77;;;;;;;;;;5095052;28;20187;-87
2022/04/04 11:52:06;;;;;;;30.85;28.50;;;;;;;;;;5094588;28;20187;-94
2022/04/04 11:54:42;;;;;;;27.73;25.70;;;;;;;;;;5095095;28;20298;-90
2022/04/04 11:57:10;;;;;;;27.08;24.48;;;;;;;;;;5094652;28;20209;-91
2022/04/04 11:59:37;;;;;;;28.55;26.60;;;;;;;;;;5094651;28;20215;-91
2022/04/04 12:02:08;;;;;;;24.20;22.73;;;;;;;;;;5076832;28;20195;-89
2022/04/04 12:04:38;;;;;;;27.35;25.23;;;;;;;;;;5094490;28;20231;-90
2022/04/04 12:07:05;;;;;;;28.92;26.83;;;;;;;;;;5094144;28;20219;-91
2022/04/04 12:09:35;;;;;;;28.75;26.90;;;;;;;;;;5076297;28;20545;-92
2022/04/04 12:12:07;;;;;;;28.65;26.58;;;;;;;;;;5094796;28;20203;-91
2022/04/04 12:14:36;;;;;;;27.60;25.75;;;;;;;;;;5094443;28;20649;-92
2022/04/04 12:17:04;;;;;;;29.45;27.50;;;;;;;;;;5076524;28;20218;-91
2022/04/04 12:19:31;;;;;;;30.10;28.05;;;;;;;;;;5094205;28;20215;-91
2022/04/04 12:24:54;;;;;;;28.95;27.02;;;;;;;;;;5094419;28;20211;-91
2022/04/04 12:24:56;;;;;;;32.33;29.27;;;;;;;;;;5094235;28;20206;-92
2022/04/04 12:27:24;;;;;;;31.73;29.65;;;;;;;;;;5094233;28;20195;-91
2022/04/04 12:29:58;;;;;;;29.20;27.10;;;;;;;;;;5094151;28;20237;-91
2022/04/04 12:32:26;;;;;;;28.10;25.92;;;;;;;;;;5094303;28;20929;-92
2022/04/04 12:35:00;;;;;;;25.70;24.13;;;;;;;;;;5094127;28;20218;-92
2022/04/04 12:37:36;;;;;;;26.50;24.65;;;;;;;;;;5076023;28;20194;-92
2022/04/04 12:40:14;;;;;;;27.35;25.65;;;;;;;;;;5094251;28;20194;-91
2022/04/04 12:42:42;;;;;;;30.85;28.73;;;;;;;;;;5093871;28;20203;-91
2022/04/04 12:45:10;;;;;;;33.65;31.10;;;;;;;;;;5094079;28;20200;-93
2022/04/04 12:47:52;;;;;;;31.00;28.80;;;;;;;;;;5094452;28;20663;-92
2022/04/04 12:50:21;;;;;;;30.58;28.55;;;;;;;;;;5096338;28;20194;-88
2022/04/04 12:52:59;;;;;;;29.85;27.80;;;;;;;;;;5098460;28;20198;-92
2022/04/04 12:55:27;;;;;;;29.17;27.23;;;;;;;;;;5098458;28;20222;-92
2022/04/04 12:57:55;;;;;;;27.73;25.85;;;;;;;;;;5079874;28;20206;-92
2022/04/04 13:00:26;;;;;;;28.15;26.42;;;;;;;;;;5098007;28;20187;-92
2022/04/04 13:02:54;;;;;;;28.15;26.42;;;;;;;;;;5098510;28;20223;-92
2022/04/04 13:05:24;;;;;;;35.90;32.83;;;;;;;;;;5099174;28;20187;-92
2022/04/04 13:07:52;;;;;;;31.42;29.23;;;;;;;;;;5098068;28;20210;-92
2022/04/04 13:10:24;;;;;;;27.42;25.63;;;;;;;;;;5097449;28;20191;-92
2022/04/04 13:12:52;;;;;;;32.53;30.33;;;;;;;;;;5080302;28;20222;-91
2022/04/04 13:15:37;;;;;;;36.25;33.83;;;;;;;;;;5098249;28;20200;-93
2022/04/04 13:18:05;;;;;;;34.90;32.25;;;;;;;;;;5097877;28;20210;-92
2022/04/04 13:20:32;;;;;;;39.58;36.88;;;;;;;;;;5097798;28;20250;-93
2022/04/04 13:23:00;;;;;;;35.40;33.30;;;;;;;;;;5080136;28;20264;-93
2022/04/04 13:25:30;;;;;;;31.88;29.98;;;;;;;;;;5098084;28;20290;-94
2022/04/04 13:27:57;;;;;;;33.40;31.15;;;;;;;;;;5098761;28;20249;-92
2022/04/04 13:30:25;;;;;;;42.13;39.17;;;;;;;;;;5097626;28;20208;-87
2022/04/04 13:32:52;;;;;;;35.83;33.50;;;;;;;;;;5097536;28;20223;-89
2022/04/04 13:35:20;;;;;;;37.95;35.33;;;;;;;;;;5097587;28;20203;-92
2022/04/04 13:37:47;;;;;;;37.58;34.97;;;;;;;;;;5098391;28;20199;-93
2022/04/04 13:40:14;;;;;;;41.25;38.60;;;;;;;;;;5080178;28;20219;-95
2022/04/04 13:42:44;;;;;;;42.65;39.58;;;;;;;;;;5099833;28;20652;-92
2022/04/04 13:45:11;;;;;;;34.22;32.30;;;;;;;;;;5099723;28;20184;-93
2022/04/04 13:47:39;;;;;;;37.53;35.10;;;;;;;;;;5098871;28;20211;-92
2022/04/04 13:50:08;;;;;;;37.80;35.33;;;;;;;;;;5098621;28;20204;-94
2022/04/04 13:52:37;;;;;;;41.65;38.70;;;;;;;;;;5082215;28;20227;-95
2022/04/04 13:55:05;;;;;;;41.63;38.72;;;;;;;;;;5099057;28;20225;-93
2022/04/04 13:57:33;;;;;;;39.95;36.95;;;;;;;;;;5097160;28;20200;-95
2022/04/04 14:00:02;;;;;;;39.85;37.00;;;;;;;;;;5097653;28;20199;-93
2022/04/04 14:02:29;;;;;;;33.95;31.70;;;;;;;;;;5096269;28;20199;-94
2022/04/04 14:04:57;;;;;;;40.90;38.22;;;;;;;;;;5097203;28;20238;-95
2022/04/04 14:07:24;;;;;;;32.42;29.85;;;;;;;;;;5097570;28;20231;-94
2022/04/04 14:09:54;;;;;;;36.35;33.85;;;;;;;;;;5080760;28;20199;-95
2022/04/04 14:12:23;;;;;;;39.42;36.10;;;;;;;;;;5097252;28;20216;-95
2022/04/04 14:14:50;;;;;;;35.92;33.47;;;;;;;;;;5097132;28;20223;-95
2022/04/04 14:17:21;;;;;;;35.33;33.05;;;;;;;;;;5097343;28;20222;-91
2022/04/04 14:19:49;;;;;;;34.72;32.55;;;;;;;;;;5095983;28;20290;-90
2022/04/04 14:22:16;;;;;;;36.78;34.22;;;;;;;;;;5097118;28;20199;-93
2022/04/04 14:24:44;;;;;;;37.50;35.20;;;;;;;;;;5096935;28;20217;-90
2022/04/04 14:27:11;;;;;;;41.03;38.03;;;;;;;;;;5096334;28;20215;-86
2022/04/04 14:29:38;;;;;;;39.05;36.35;;;;;;;;;;5096304;28;20203;-87